createdAt,value
2022-09-22T00:01:23.949Z,70.37
2022-09-22T00:03:52.944Z,70.03
2022-09-22T00:06:24.449Z,70.05
2022-09-22T00:08:53.697Z,70.33
2022-09-22T00:11:28.361Z,70.30
2022-09-22T00:14:01.397Z,71.03
2022-09-22T00:16:34.349Z,70.99
2022-09-22T00:19:00.720Z,71.19
2022-09-22T00:21:27.924Z,71.18
2022-09-22T00:23:55.176Z,71.43
2022-09-22T00:26:23.277Z,70.95
2022-09-22T00:28:51.641Z,71.72
2022-09-22T00:31:24.375Z,71.07
2022-09-22T00:33:52.716Z,71.72
2022-09-22T00:36:21.671Z,72.02
2022-09-22T00:38:51.238Z,71.58
2022-09-22T00:41:21.226Z,72.20
2022-09-22T00:43:50.332Z,72.13
2022-09-22T00:46:22.568Z,71.86
2022-09-22T00:48:53.669Z,72.03
2022-09-22T00:51:25.079Z,72.32
2022-09-22T00:53:52.867Z,72.24
2022-09-22T00:56:36.644Z,72.65
2022-09-22T00:59:07.944Z,71.88
2022-09-22T01:01:36.789Z,72.21
2022-09-22T01:04:03.877Z,72.46
2022-09-22T01:06:30.932Z,72.49
2022-09-22T01:08:58.205Z,73.14
2022-09-22T01:11:26.211Z,72.75
2022-09-22T01:14:23.946Z,73.05
2022-09-22T01:16:56.275Z,72.76
2022-09-22T01:19:51.480Z,72.88
2022-09-22T01:22:55.687Z,73.34
2022-09-22T01:25:50.047Z,73.10
2022-09-22T01:28:22.333Z,73.41
2022-09-22T01:31:04.756Z,72.88
2022-09-22T01:34:02.020Z,72.96
2022-09-22T01:36:54.682Z,73.30
2022-09-22T01:40:10.532Z,73.67
2022-09-22T01:42:44.207Z,73.00
2022-09-22T01:45:17.824Z,73.58
2022-09-22T01:47:53.346Z,73.60
2022-09-22T01:50:51.325Z,73.58
2022-09-22T01:53:22.317Z,72.70
2022-09-22T01:55:55.115Z,73.49
2022-09-22T01:58:28.955Z,72.74
2022-09-22T02:01:02.448Z,73.56
2022-09-22T02:04:11.541Z,73.56
2022-09-22T02:06:48.832Z,73.30
2022-09-22T02:09:21.284Z,74.17
2022-09-22T02:11:48.877Z,73.64
2022-09-22T02:14:16.047Z,73.63
2022-09-22T02:16:42.464Z,74.14
2022-09-22T02:19:18.720Z,74.56
2022-09-22T02:21:47.811Z,74.61
2022-09-22T02:24:29.152Z,75.27
2022-09-22T02:26:57.798Z,74.41
2022-09-22T02:29:29.225Z,74.28
2022-09-22T02:31:56.631Z,75.04
2022-09-22T02:34:23.341Z,74.82
2022-09-22T02:37:03.354Z,74.99
2022-09-22T02:39:49.729Z,75.73
2022-09-22T02:42:39.799Z,75.10
2022-09-22T02:45:19.436Z,74.77
2022-09-22T02:47:52.083Z,75.07
2022-09-22T02:50:22.228Z,75.58
2022-09-22T02:52:52.820Z,75.33
2022-09-22T02:55:19.846Z,75.79
2022-09-22T02:57:46.221Z,76.08
2022-09-22T03:00:13.080Z,75.24
2022-09-22T03:02:39.547Z,75.28
2022-09-22T03:05:06.525Z,75.71
2022-09-22T03:07:32.932Z,76.27
2022-09-22T03:09:59.431Z,76.05
2022-09-22T03:12:25.845Z,75.60
2022-09-22T03:14:52.276Z,76.08
2022-09-22T03:17:18.657Z,75.57
2022-09-22T03:19:45.023Z,75.74
2022-09-22T03:22:11.392Z,76.67
2022-09-22T03:24:37.733Z,75.83
2022-09-22T03:27:04.158Z,76.19
2022-09-22T03:29:30.516Z,77.02
2022-09-22T03:31:56.836Z,76.13
2022-09-22T03:34:23.167Z,77.00
2022-09-22T03:36:49.979Z,75.69
2022-09-22T03:39:16.382Z,75.87
2022-09-22T03:41:42.747Z,75.79
2022-09-22T03:44:09.165Z,76.34
2022-09-22T03:46:35.524Z,76.03
2022-09-22T03:49:03.170Z,75.91
2022-09-22T03:51:30.000Z,75.28
2022-09-22T03:53:56.393Z,75.78
2022-09-22T03:56:22.734Z,75.54
2022-09-22T03:58:49.842Z,75.56
2022-09-22T04:01:16.332Z,75.40
2022-09-22T04:03:42.833Z,75.49
2022-09-22T04:06:09.674Z,75.19
2022-09-22T04:08:36.810Z,75.07
2022-09-22T04:11:04.228Z,75.17
2022-09-22T04:13:30.842Z,75.63
2022-09-22T04:15:57.196Z,74.98
2022-09-22T04:18:24.090Z,75.28
2022-09-22T04:20:51.296Z,75.88
2022-09-22T04:23:17.656Z,75.68
2022-09-22T04:25:44.144Z,75.51
2022-09-22T04:28:10.605Z,76.03
2022-09-22T04:30:37.461Z,74.82
2022-09-22T04:33:04.501Z,75.33
2022-09-22T04:35:30.998Z,74.88
2022-09-22T04:37:58.035Z,75.01
2022-09-22T04:40:25.212Z,74.62
2022-09-22T04:42:51.750Z,74.80
2022-09-22T04:45:18.178Z,74.59
2022-09-22T04:47:46.052Z,75.10
2022-09-22T04:50:12.890Z,75.09
2022-09-22T04:52:39.392Z,75.10
2022-09-22T04:55:06.379Z,75.37
2022-09-22T04:57:32.732Z,75.06
2022-09-22T04:59:59.090Z,75.33
2022-09-22T05:02:25.445Z,75.88
2022-09-22T05:04:51.797Z,76.01
2022-09-22T05:07:18.177Z,76.33
2022-09-22T05:09:44.593Z,76.65
2022-09-22T05:12:10.919Z,76.45
2022-09-22T05:14:37.324Z,76.14
2022-09-22T05:17:04.457Z,76.43
2022-09-22T05:19:30.794Z,76.24
2022-09-22T05:21:57.214Z,76.10
2022-09-22T05:24:23.636Z,76.39
2022-09-22T05:26:50.286Z,76.38
2022-09-22T05:29:18.186Z,76.33
2022-09-22T05:31:45.910Z,76.42
2022-09-22T05:34:13.059Z,76.01
2022-09-22T05:36:39.619Z,76.17
2022-09-22T05:39:06.081Z,76.09
2022-09-22T05:41:32.550Z,76.49
2022-09-22T05:43:58.887Z,76.10
2022-09-22T05:46:25.235Z,75.98
2022-09-22T05:48:51.574Z,76.61
2022-09-22T05:51:17.932Z,76.11
2022-09-22T05:53:44.358Z,76.46
2022-09-22T05:56:10.764Z,76.75
2022-09-22T05:58:37.181Z,76.29
2022-09-22T06:01:04.402Z,76.90
2022-09-22T06:03:30.979Z,77.56
2022-09-22T06:05:57.644Z,76.72
2022-09-22T06:08:24.027Z,77.29
2022-09-22T06:10:51.221Z,77.51
2022-09-22T06:13:17.652Z,76.92
2022-09-22T06:15:46.456Z,78.07
2022-09-22T06:18:15.361Z,77.88
2022-09-22T06:20:42.355Z,77.51
2022-09-22T06:23:08.948Z,78.10
2022-09-22T06:25:35.313Z,77.86
2022-09-22T06:28:06.620Z,78.50
2022-09-22T06:30:35.168Z,78.26
2022-09-22T06:33:01.794Z,77.92
2022-09-22T06:35:37.585Z,77.88
2022-09-22T06:38:13.787Z,78.05
2022-09-22T06:40:40.268Z,78.00
2022-09-22T06:43:11.993Z,77.91
2022-09-22T06:45:39.800Z,77.78
2022-09-22T06:48:10.105Z,77.83
2022-09-22T06:50:37.588Z,78.31
2022-09-22T06:53:07.148Z,77.40
2022-09-22T06:55:34.096Z,78.40
2022-09-22T06:58:02.715Z,77.47
2022-09-22T07:00:34.287Z,77.60
2022-09-22T07:03:22.470Z,78.02
2022-09-22T07:06:00.910Z,77.92
2022-09-22T07:08:29.389Z,78.31
2022-09-22T07:10:58.267Z,77.88
2022-09-22T07:13:26.131Z,77.92
2022-09-22T07:15:52.559Z,77.72
2022-09-22T07:18:18.981Z,78.02
2022-09-22T07:20:45.719Z,77.36
2022-09-22T07:23:18.370Z,76.50
2022-09-22T07:25:56.169Z,76.66
2022-09-22T07:28:28.301Z,76.52
2022-09-22T07:30:58.448Z,76.58
2022-09-22T07:33:25.950Z,76.67
2022-09-22T07:36:01.831Z,76.58
2022-09-22T07:38:34.016Z,76.56
2022-09-22T07:41:01.242Z,76.37
2022-09-22T07:43:28.492Z,76.25
2022-09-22T07:45:57.146Z,75.98
2022-09-22T07:48:37.502Z,75.69
2022-09-22T07:51:14.236Z,75.51
2022-09-22T07:53:42.775Z,75.35
2022-09-22T07:56:12.354Z,75.22
2022-09-22T07:58:51.043Z,75.08
2022-09-22T08:01:19.389Z,74.60
2022-09-22T08:03:47.286Z,74.67
2022-09-22T08:06:16.079Z,74.57
2022-09-22T08:08:48.302Z,73.83
2022-09-22T08:11:17.793Z,73.32
2022-09-22T08:13:56.043Z,73.24
2022-09-22T08:16:24.377Z,72.44
2022-09-22T08:18:54.755Z,72.46
2022-09-22T08:21:21.441Z,72.49
2022-09-22T08:23:49.912Z,72.01
2022-09-22T08:26:16.254Z,72.09
2022-09-22T08:28:42.586Z,71.66
2022-09-22T08:31:13.213Z,71.35
2022-09-22T08:33:40.683Z,71.25
2022-09-22T08:36:07.270Z,71.15
2022-09-22T08:38:34.332Z,70.60
2022-09-22T08:41:13.069Z,70.02
2022-09-22T08:43:50.237Z,69.69
2022-09-22T08:46:16.637Z,69.42
2022-09-22T08:49:06.543Z,68.84
2022-09-22T08:51:52.214Z,68.16
2022-09-22T08:54:27.116Z,68.41
2022-09-22T08:57:28.628Z,68.26
2022-09-22T09:00:12.935Z,68.13
2022-09-22T09:02:48.523Z,67.34
2022-09-22T09:05:39.650Z,66.86
2022-09-22T09:08:25.909Z,66.34
2022-09-22T09:11:09.634Z,65.96
2022-09-22T09:14:17.521Z,65.76
2022-09-22T09:16:53.864Z,65.91
2022-09-22T09:19:32.331Z,65.61
2022-09-22T09:22:11.960Z,64.50
2022-09-22T09:27:39.654Z,64.28
2022-09-22T09:30:14.776Z,64.19
2022-09-22T09:32:54.404Z,63.70
2022-09-22T09:35:26.388Z,62.79
2022-09-22T09:37:58.733Z,62.93
2022-09-22T09:40:25.546Z,62.64
2022-09-22T09:43:04.028Z,61.64
2022-09-22T09:45:53.186Z,61.32
2022-09-22T09:48:46.959Z,60.80
2022-09-22T09:51:14.188Z,59.89
2022-09-22T09:53:46.316Z,58.24
2022-09-22T09:56:27.319Z,58.33
2022-09-22T09:59:21.445Z,58.24
2022-09-22T10:01:50.745Z,57.26
2022-09-22T10:04:19.184Z,57.72
2022-09-22T10:06:46.673Z,57.11
2022-09-22T10:09:24.194Z,55.51
2022-09-22T10:12:03.587Z,55.68
2022-09-22T10:14:33.050Z,54.90
2022-09-22T10:17:00.001Z,54.40
2022-09-22T10:19:30.197Z,53.83
2022-09-22T10:22:16.271Z,53.82
2022-09-22T10:24:53.508Z,54.22
2022-09-22T10:27:21.873Z,54.14
2022-09-22T10:29:51.115Z,53.95
2022-09-22T10:32:17.504Z,53.88
2022-09-22T10:34:51.426Z,54.41
2022-09-22T10:37:24.743Z,53.57
2022-09-22T10:39:53.021Z,53.19
2022-09-22T10:42:32.486Z,52.06
2022-09-22T10:45:19.349Z,51.97
2022-09-22T10:47:58.161Z,51.30
2022-09-22T10:50:58.557Z,51.19
2022-09-22T10:53:27.300Z,50.24
2022-09-22T10:56:13.926Z,49.57
2022-09-22T10:59:10.520Z,49.73
2022-09-22T11:01:57.145Z,49.15
2022-09-22T11:04:40.036Z,48.13
2022-09-22T11:07:46.726Z,47.88
2022-09-22T11:10:50.525Z,48.11
2022-09-22T11:13:43.402Z,48.02
2022-09-22T11:16:27.804Z,48.03
2022-09-22T11:19:13.157Z,47.45
2022-09-22T11:22:00.302Z,46.76
2022-09-22T11:24:46.637Z,46.74
2022-09-22T11:27:24.780Z,46.03
2022-09-22T11:30:22.835Z,45.24
2022-09-22T11:33:24.957Z,45.20
2022-09-22T11:36:15.206Z,44.28
2022-09-22T11:39:13.699Z,44.06
2022-09-22T11:41:47.783Z,44.57
2022-09-22T11:44:29.968Z,44.59
2022-09-22T11:47:20.803Z,44.92
2022-09-22T11:50:18.123Z,45.33
2022-09-22T11:53:03.441Z,44.69
2022-09-22T11:55:43.636Z,44.25
2022-09-22T11:58:15.640Z,44.53
2022-09-22T12:00:53.249Z,43.98
2022-09-22T12:03:26.585Z,44.47
2022-09-22T12:06:05.581Z,44.42
2022-09-22T12:08:37.779Z,43.92
2022-09-22T12:11:06.983Z,44.10
2022-09-22T12:13:34.850Z,43.87
2022-09-22T12:16:41.564Z,43.86
2022-09-22T12:19:31.878Z,44.30
2022-09-22T12:22:27.654Z,44.05
2022-09-22T12:24:53.981Z,43.65
2022-09-22T12:27:26.110Z,43.37
2022-09-22T12:30:02.554Z,43.28
2022-09-22T12:32:50.218Z,43.50
2022-09-22T12:35:30.991Z,44.02
2022-09-22T12:38:01.718Z,43.76
2022-09-22T12:40:35.604Z,44.11
2022-09-22T12:43:02.207Z,43.15
2022-09-22T12:45:38.100Z,42.90
2022-09-22T12:48:13.823Z,42.96
2022-09-22T12:50:42.353Z,42.53
2022-09-22T12:53:20.846Z,42.94
2022-09-22T12:55:48.618Z,43.72
2022-09-22T12:58:21.322Z,43.58
2022-09-22T13:00:50.399Z,43.54
2022-09-22T13:03:37.157Z,42.87
2022-09-22T13:06:23.523Z,42.58
2022-09-22T13:08:52.869Z,42.35
2022-09-22T13:11:20.448Z,42.96
2022-09-22T13:13:48.645Z,42.75
2022-09-22T13:16:15.006Z,41.71
2022-09-22T13:18:50.890Z,41.04
2022-09-22T13:21:18.795Z,40.46
2022-09-22T13:23:54.357Z,40.50
2022-09-22T13:26:35.829Z,40.23
2022-09-22T13:29:22.064Z,39.99
2022-09-22T13:31:52.895Z,39.22
2022-09-22T13:34:30.997Z,38.86
2022-09-22T13:37:02.858Z,38.48
2022-09-22T13:39:35.341Z,38.63
2022-09-22T13:42:31.358Z,38.43
2022-09-22T13:45:03.757Z,38.35
2022-09-22T13:47:30.602Z,38.36
2022-09-22T13:50:03.701Z,38.72
2022-09-22T13:52:32.709Z,38.44
2022-09-22T13:55:14.842Z,37.96
2022-09-22T13:57:41.862Z,38.24
2022-09-22T14:00:17.447Z,37.52
2022-09-22T14:02:45.251Z,37.63
2022-09-22T14:05:21.029Z,37.75
2022-09-22T14:08:07.809Z,37.92
2022-09-22T14:10:34.400Z,38.08
2022-09-22T14:13:00.892Z,38.20
2022-09-22T14:15:39.302Z,38.22
2022-09-22T14:18:15.745Z,37.65
2022-09-22T14:20:44.344Z,37.12
2022-09-22T14:23:26.426Z,36.93
2022-09-22T14:25:52.831Z,37.03
2022-09-22T14:28:29.609Z,37.41
2022-09-22T14:30:56.173Z,37.45
2022-09-22T14:33:25.432Z,37.48
2022-09-22T14:36:00.736Z,37.38
2022-09-22T14:38:29.999Z,37.16
2022-09-22T14:41:02.987Z,37.44
2022-09-22T14:43:41.953Z,37.09
2022-09-22T14:46:28.379Z,37.06
2022-09-22T14:48:55.245Z,37.63
2022-09-22T14:51:24.701Z,37.93
2022-09-22T14:54:01.712Z,38.50
2022-09-22T14:56:32.747Z,38.65
2022-09-22T14:59:00.829Z,38.59
2022-09-22T15:01:50.891Z,37.84
2022-09-22T15:04:24.892Z,37.63
2022-09-22T15:06:56.208Z,36.72
2022-09-22T15:09:26.802Z,36.02
2022-09-22T15:12:00.155Z,35.56
2022-09-22T15:14:41.534Z,35.21
2022-09-22T15:17:59.296Z,35.65
2022-09-22T15:20:36.665Z,35.41
2022-09-22T15:23:03.295Z,35.40
2022-09-22T15:25:29.716Z,35.67
2022-09-22T15:27:56.108Z,35.88
2022-09-22T15:30:22.650Z,34.82
2022-09-22T15:32:49.523Z,33.25
2022-09-22T15:35:17.619Z,32.55
2022-09-22T15:37:49.966Z,29.50
2022-09-22T15:40:21.541Z,26.13
2022-09-22T15:43:11.159Z,22.86
2022-09-22T15:45:37.180Z,21.53
2022-09-22T15:48:03.772Z,21.15
2022-09-22T15:50:30.645Z,20.15
2022-09-22T15:52:57.045Z,19.37
2022-09-22T15:55:24.285Z,18.79
2022-09-22T15:57:54.718Z,19.15
2022-09-22T16:00:27.440Z,19.38
2022-09-22T16:02:54.604Z,20.80
2022-09-22T16:05:21.185Z,22.90
2022-09-22T16:07:52.672Z,25.50
2022-09-22T16:10:25.811Z,28.23
2022-09-22T16:12:52.177Z,29.79
2022-09-22T16:15:18.594Z,31.07
2022-09-22T16:17:46.424Z,31.51
2022-09-22T16:20:16.877Z,32.78
2022-09-22T16:22:45.287Z,33.14
2022-09-22T16:25:12.495Z,33.85
2022-09-22T16:27:38.913Z,34.08
2022-09-22T16:30:05.968Z,33.74
2022-09-22T16:32:36.123Z,32.83
2022-09-22T16:35:03.639Z,30.22
2022-09-22T16:37:30.082Z,27.93
2022-09-22T16:39:56.415Z,26.11
2022-09-22T16:42:23.850Z,25.73
2022-09-22T16:44:50.468Z,25.09
2022-09-22T16:47:22.874Z,25.20
2022-09-22T16:49:51.164Z,25.38
2022-09-22T16:52:19.943Z,25.77
2022-09-22T16:54:46.464Z,25.80
2022-09-22T16:57:12.829Z,26.61
2022-09-22T16:59:39.159Z,27.63
2022-09-22T17:02:05.714Z,28.19
2022-09-22T17:04:32.389Z,30.39
2022-09-22T17:06:58.833Z,32.86
2022-09-22T17:09:25.285Z,35.32
2022-09-22T17:11:52.858Z,37.62
2022-09-22T17:14:24.310Z,39.48
2022-09-22T17:16:53.512Z,41.05
2022-09-22T17:19:23.133Z,42.72
2022-09-22T17:21:51.859Z,44.42
2022-09-22T17:24:19.235Z,46.19
2022-09-22T17:26:50.880Z,47.62
2022-09-22T17:29:24.857Z,48.97
2022-09-22T17:31:56.395Z,49.86
2022-09-22T17:34:24.620Z,50.62
2022-09-22T17:36:52.387Z,51.89
2022-09-22T17:39:18.736Z,52.25
2022-09-22T17:41:48.065Z,53.06
2022-09-22T17:44:19.545Z,53.88
2022-09-22T17:47:24.219Z,54.51
2022-09-22T17:50:08.973Z,55.20
2022-09-22T17:52:53.806Z,55.08
2022-09-22T17:55:22.433Z,55.52
2022-09-22T17:57:50.337Z,55.74
2022-09-22T18:00:20.977Z,55.85
2022-09-22T18:02:49.410Z,56.11
2022-09-22T18:05:17.940Z,57.00
2022-09-22T18:07:44.532Z,57.39
2022-09-22T18:10:16.698Z,57.26
2022-09-22T18:12:44.136Z,57.30
2022-09-22T18:15:13.197Z,57.92
2022-09-22T18:17:41.970Z,57.92
2022-09-22T18:20:14.648Z,58.00
2022-09-22T18:22:42.428Z,58.17
2022-09-22T18:25:10.259Z,58.60
2022-09-22T18:27:38.002Z,58.96
2022-09-22T18:30:05.083Z,59.03
2022-09-22T18:32:31.932Z,59.05
2022-09-22T18:34:58.313Z,59.18
2022-09-22T18:37:25.374Z,59.12
2022-09-22T18:39:51.716Z,59.12
2022-09-22T18:42:19.369Z,59.46
2022-09-22T18:44:47.098Z,59.58
2022-09-22T18:47:16.199Z,59.44
2022-09-22T18:49:43.010Z,59.81
2022-09-22T18:52:10.065Z,59.99
2022-09-22T18:54:39.507Z,60.16
2022-09-22T18:57:06.906Z,60.35
2022-09-22T18:59:33.508Z,60.68
2022-09-22T19:01:59.948Z,60.75
2022-09-22T19:04:26.837Z,60.54
2022-09-22T19:07:13.889Z,60.71
2022-09-22T19:09:40.642Z,60.70
2022-09-22T19:12:09.190Z,61.07
2022-09-22T19:14:38.995Z,61.31
2022-09-22T19:17:07.195Z,61.56
2022-09-22T19:19:36.919Z,61.62
2022-09-22T19:22:08.856Z,62.02
2022-09-22T19:24:36.934Z,61.94
2022-09-22T19:27:04.757Z,62.02
2022-09-22T19:29:32.390Z,62.44
2022-09-22T19:32:00.141Z,62.39
2022-09-22T19:34:27.340Z,62.66
2022-09-22T19:36:55.457Z,62.67
2022-09-22T19:39:22.934Z,62.88
2022-09-22T19:41:50.471Z,63.21
2022-09-22T19:44:20.032Z,63.39
2022-09-22T19:46:47.675Z,63.32
2022-09-22T19:49:15.026Z,63.59
2022-09-22T19:51:42.449Z,63.87
2022-09-22T19:54:09.560Z,63.98
2022-09-22T19:56:35.974Z,63.67
2022-09-22T19:59:03.123Z,64.29
2022-09-22T20:01:35.903Z,64.34
2022-09-22T20:04:03.270Z,64.20
2022-09-22T20:06:29.914Z,63.80
2022-09-22T20:09:02.658Z,63.80
2022-09-22T20:11:49.649Z,64.19
2022-09-22T20:14:22.448Z,64.03
2022-09-22T20:16:56.916Z,64.54
2022-09-22T20:19:25.629Z,64.49
2022-09-22T20:21:54.444Z,64.55
2022-09-22T20:24:22.786Z,64.97
2022-09-22T20:26:49.885Z,65.01
2022-09-22T20:29:17.323Z,64.75
2022-09-22T20:31:43.845Z,64.85
2022-09-22T20:34:15.023Z,64.96
2022-09-22T20:36:43.279Z,65.20
2022-09-22T20:39:14.854Z,65.35
2022-09-22T20:41:42.087Z,65.47
2022-09-22T20:44:14.551Z,65.26
2022-09-22T20:46:42.132Z,65.43
2022-09-22T20:49:12.235Z,65.59
2022-09-22T20:51:38.751Z,65.50
2022-09-22T20:54:05.571Z,65.72
2022-09-22T20:56:34.053Z,65.50
2022-09-22T20:59:01.967Z,65.71
2022-09-22T21:01:28.413Z,65.58
2022-09-22T21:03:55.353Z,65.63
2022-09-22T21:06:22.517Z,65.96
2022-09-22T21:09:07.233Z,66.13
2022-09-22T21:11:33.739Z,66.16
2022-09-22T21:14:03.771Z,65.97
2022-09-22T21:16:30.591Z,66.43
2022-09-22T21:18:57.218Z,65.94
2022-09-22T21:21:23.740Z,66.33
2022-09-22T21:23:50.087Z,66.80
2022-09-22T21:26:18.457Z,67.25
2022-09-22T21:28:46.106Z,67.41
2022-09-22T21:31:14.604Z,67.06
2022-09-22T21:33:41.814Z,67.63
2022-09-22T21:36:13.601Z,67.82
2022-09-22T21:38:41.942Z,67.44
2022-09-22T21:41:11.508Z,67.80
2022-09-22T21:43:38.609Z,67.99
2022-09-22T21:46:08.258Z,67.85
2022-09-22T21:48:38.310Z,67.45
2022-09-22T21:51:10.771Z,68.16
2022-09-22T21:53:39.387Z,67.47
2022-09-22T21:56:08.620Z,67.88
2022-09-22T21:58:36.903Z,67.85
2022-09-22T22:01:08.089Z,67.62
2022-09-22T22:03:35.404Z,67.69
2022-09-22T22:06:18.371Z,68.33
2022-09-22T22:08:49.175Z,67.94
2022-09-22T22:11:22.589Z,68.47
2022-09-22T22:13:52.148Z,68.10
2022-09-22T22:16:21.441Z,68.06
2022-09-22T22:18:48.160Z,68.05
2022-09-22T22:21:20.335Z,68.19
2022-09-22T22:23:48.367Z,67.42
2022-09-22T22:26:19.811Z,67.42
2022-09-22T22:28:47.946Z,68.40
2022-09-22T22:31:16.785Z,68.35
2022-09-22T22:33:43.969Z,68.31
2022-09-22T22:36:13.924Z,68.50
2022-09-22T22:38:41.393Z,68.54
2022-09-22T22:41:13.200Z,69.30
2022-09-22T22:43:40.340Z,69.65
2022-09-22T22:46:08.105Z,69.53
2022-09-22T22:48:36.053Z,69.28
2022-09-22T22:51:12.167Z,68.83
2022-09-22T22:53:38.811Z,69.62
2022-09-22T22:56:07.760Z,69.36
2022-09-22T22:58:36.111Z,69.36
2022-09-22T23:01:12.011Z,70.54
2022-09-22T23:03:41.178Z,69.88
2022-09-22T23:06:13.531Z,70.08
2022-09-22T23:08:41.103Z,70.01
2022-09-22T23:11:11.348Z,70.59
2022-09-22T23:13:40.415Z,70.79
2022-09-22T23:16:09.442Z,71.27
2022-09-22T23:18:38.041Z,71.57
2022-09-22T23:21:06.292Z,70.68
2022-09-22T23:23:33.908Z,71.33
2022-09-22T23:26:01.977Z,71.69
2022-09-22T23:28:31.162Z,71.02
2022-09-22T23:31:03.490Z,70.54
2022-09-22T23:33:30.719Z,70.81
2022-09-22T23:35:59.100Z,71.65
2022-09-22T23:38:27.332Z,71.53
2022-09-22T23:40:55.058Z,71.46
2022-09-22T23:43:22.388Z,71.27
2022-09-22T23:45:49.258Z,71.07
2022-09-22T23:48:16.544Z,70.84
2022-09-22T23:50:47.510Z,71.11
2022-09-22T23:53:15.499Z,70.97
2022-09-22T23:55:42.323Z,71.47
2022-09-22T23:58:09.287Z,71.33
